createdAt,value
2018-03-06T00:00:24.239Z,0
2018-03-06T00:01:22.477Z,0
2018-03-06T00:02:22.465Z,0
2018-03-06T00:03:22.434Z,0
2018-03-06T00:04:23.897Z,0
2018-03-06T00:05:22.825Z,0
2018-03-06T00:06:22.426Z,0
2018-03-06T00:07:22.716Z,0
2018-03-06T00:08:25.063Z,0
2018-03-06T00:09:22.145Z,0
2018-03-06T00:10:22.673Z,0
2018-03-06T00:11:23.976Z,0
2018-03-06T00:12:23.534Z,0
2018-03-06T00:13:22.376Z,0
2018-03-06T00:14:22.364Z,0
2018-03-06T00:15:23.369Z,0
2018-03-06T00:16:23.215Z,0
2018-03-06T00:17:22.345Z,0
2018-03-06T00:18:22.047Z,0
2018-03-06T00:19:22.508Z,0
2018-03-06T00:20:23.529Z,0
2018-03-06T00:21:22.413Z,0
2018-03-06T00:22:22.055Z,0
2018-03-06T00:23:22.599Z,0
2018-03-06T00:24:22.545Z,0
2018-03-06T00:25:22.404Z,0
2018-03-06T00:26:24.050Z,0
2018-03-06T00:27:22.505Z,0
2018-03-06T00:28:22.241Z,0
2018-03-06T00:29:21.684Z,0
2018-03-06T00:30:24.446Z,0
2018-03-06T00:31:22.217Z,0
2018-03-06T00:32:21.985Z,0
2018-03-06T00:33:21.649Z,0
2018-03-06T00:34:23.564Z,0
2018-03-06T00:35:22.577Z,0
2018-03-06T00:36:22.176Z,0
2018-03-06T00:37:21.908Z,0
2018-03-06T00:38:24.322Z,0
2018-03-06T00:39:21.876Z,0
2018-03-06T00:40:22.812Z,0
2018-03-06T00:41:25.598Z,0
2018-03-06T00:42:22.112Z,0
2018-03-06T00:43:22.090Z,0
2018-03-06T00:44:23.997Z,0
2018-03-06T00:45:22.396Z,0
2018-03-06T00:46:22.362Z,0
2018-03-06T00:47:22.921Z,0
2018-03-06T00:48:22.329Z,0
2018-03-06T00:49:22.030Z,0
2018-03-06T00:50:22.830Z,0
2018-03-06T00:51:23.605Z,0
2018-03-06T00:52:22.016Z,0
2018-03-06T00:53:21.997Z,0
2018-03-06T00:54:22.469Z,0
2018-03-06T00:55:21.922Z,0
2018-03-06T00:56:21.453Z,0
2018-03-06T00:57:22.516Z,0
2018-03-06T00:58:22.701Z,0
2018-03-06T00:59:21.978Z,0
2018-03-06T01:00:21.889Z,0
2018-03-06T01:01:24.662Z,0
2018-03-06T01:02:21.677Z,0
2018-03-06T01:03:21.643Z,0
2018-03-06T01:04:22.200Z,0
2018-03-06T01:05:22.703Z,0
2018-03-06T01:06:22.175Z,0
2018-03-06T01:07:21.894Z,0
2018-03-06T01:08:23.047Z,0
2018-03-06T01:09:22.749Z,0
2018-03-06T01:10:21.821Z,0
2018-03-06T01:11:22.106Z,0
2018-03-06T01:12:22.439Z,0
2018-03-06T01:13:21.841Z,0
2018-03-06T01:14:22.137Z,0
2018-03-06T01:15:21.509Z,0
2018-03-06T01:16:21.541Z,0
2018-03-06T01:17:21.787Z,0
2018-03-06T01:18:21.799Z,0
2018-03-06T01:19:23.495Z,0
2018-03-06T01:20:22.062Z,0
2018-03-06T01:21:21.749Z,0
2018-03-06T01:22:21.749Z,0
2018-03-06T01:23:23.354Z,0
2018-03-06T01:24:21.989Z,0
2018-03-06T01:25:21.608Z,0
2018-03-06T01:26:22.712Z,0
2018-03-06T01:27:22.223Z,0
2018-03-06T01:28:21.992Z,0
2018-03-06T01:29:21.776Z,0
2018-03-06T01:30:23.787Z,0
2018-03-06T01:31:21.738Z,0
2018-03-06T01:32:22.036Z,0
2018-03-06T01:33:23.124Z,0
2018-03-06T01:34:21.626Z,0
2018-03-06T01:35:22.094Z,0
2018-03-06T01:36:23.305Z,0
2018-03-06T01:37:21.618Z,0
2018-03-06T01:38:21.886Z,0
2018-03-06T01:39:22.460Z,0
2018-03-06T01:40:23.741Z,0
2018-03-06T01:41:21.826Z,0
2018-03-06T01:42:21.305Z,0
2018-03-06T01:43:22.191Z,0
2018-03-06T01:44:21.847Z,0
2018-03-06T01:45:21.539Z,0
2018-03-06T01:46:23.928Z,0
2018-03-06T01:47:21.248Z,0
2018-03-06T01:48:21.232Z,0
2018-03-06T01:49:23.457Z,0
2018-03-06T01:50:21.483Z,0
2018-03-06T01:51:21.495Z,0
2018-03-06T01:52:21.764Z,0
2018-03-06T01:53:22.763Z,0
2018-03-06T01:54:21.702Z,0
2018-03-06T01:55:21.755Z,0
2018-03-06T01:56:24.183Z,0
2018-03-06T01:57:21.160Z,0
2018-03-06T01:58:21.949Z,0
2018-03-06T01:59:21.669Z,0
2018-03-06T02:00:23.136Z,0
2018-03-06T02:01:21.442Z,0
2018-03-06T02:02:21.563Z,0
2018-03-06T02:03:23.287Z,0
2018-03-06T02:04:21.346Z,0
2018-03-06T02:05:21.799Z,0
2018-03-06T02:06:21.331Z,0
2018-03-06T02:07:22.050Z,0
2018-03-06T02:08:21.634Z,0
2018-03-06T02:09:21.069Z,0
2018-03-06T02:10:24.625Z,0
2018-03-06T02:11:21.552Z,0
2018-03-06T02:12:21.558Z,0
2018-03-06T02:13:21.565Z,0
2018-03-06T02:14:24.158Z,0
2018-03-06T02:15:21.577Z,0
2018-03-06T02:16:21.247Z,0
2018-03-06T02:17:21.252Z,0
2018-03-06T02:18:21.555Z,0
2018-03-06T02:19:21.206Z,0
2018-03-06T02:20:21.750Z,0
2018-03-06T02:21:21.999Z,0
2018-03-06T02:22:21.204Z,0
2018-03-06T02:23:21.176Z,0
2018-03-06T02:24:21.168Z,0
2018-03-06T02:25:23.170Z,0
2018-03-06T02:26:21.417Z,0
2018-03-06T02:27:21.411Z,0
2018-03-06T02:28:22.280Z,0
2018-03-06T02:29:22.781Z,0
2018-03-06T02:30:21.637Z,0
2018-03-06T02:31:20.837Z,0
2018-03-06T02:32:23.548Z,0
2018-03-06T02:33:21.107Z,0
2018-03-06T02:34:21.342Z,0
2018-03-06T02:35:21.923Z,0
2018-03-06T02:36:24.064Z,0
2018-03-06T02:37:21.044Z,0
2018-03-06T02:38:21.019Z,0
2018-03-06T02:39:21.037Z,0
2018-03-06T02:40:24.526Z,0
2018-03-06T02:41:21.016Z,0
2018-03-06T02:42:21.014Z,0
2018-03-06T02:43:26.918Z,0
2018-03-06T02:44:21.236Z,0
2018-03-06T02:45:21.418Z,0
2018-03-06T02:46:22.066Z,0
2018-03-06T02:47:22.060Z,0
2018-03-06T02:48:21.219Z,0
2018-03-06T02:49:21.193Z,0
2018-03-06T02:50:21.983Z,0
2018-03-06T02:51:21.170Z,0
2018-03-06T02:52:20.925Z,0
2018-03-06T02:53:21.137Z,0
2018-03-06T02:54:22.050Z,0
2018-03-06T02:55:21.536Z,0
2018-03-06T02:56:20.910Z,0
2018-03-06T02:57:22.468Z,0
2018-03-06T02:58:20.878Z,0
2018-03-06T02:59:21.944Z,0
2018-03-06T03:00:21.414Z,0
2018-03-06T03:01:22.299Z,0
2018-03-06T03:02:21.111Z,0
2018-03-06T03:03:21.121Z,0
2018-03-06T03:04:21.127Z,0
2018-03-06T03:05:22.426Z,0
2018-03-06T03:06:21.020Z,0
2018-03-06T03:07:21.038Z,0
2018-03-06T03:08:22.675Z,0
2018-03-06T03:09:20.722Z,0
2018-03-06T03:10:21.713Z,0
2018-03-06T03:11:20.698Z,0
2018-03-06T03:12:22.218Z,0
2018-03-06T03:13:20.708Z,0
2018-03-06T03:14:24.263Z,0
2018-03-06T03:15:21.651Z,0
2018-03-06T03:16:23.157Z,0
2018-03-06T03:17:20.374Z,0
2018-03-06T03:18:20.649Z,0
2018-03-06T03:19:20.642Z,0
2018-03-06T03:20:23.720Z,0
2018-03-06T03:21:20.340Z,0
2018-03-06T03:22:20.900Z,0
2018-03-06T03:23:22.266Z,0
2018-03-06T03:24:20.866Z,0
2018-03-06T03:25:21.184Z,0
2018-03-06T03:26:20.013Z,0
2018-03-06T03:27:20.293Z,0
2018-03-06T03:28:20.848Z,0
2018-03-06T03:29:22.890Z,0
2018-03-06T03:30:20.990Z,0
2018-03-06T03:31:20.807Z,0
2018-03-06T03:32:19.951Z,0
2018-03-06T03:33:21.605Z,0
2018-03-06T03:34:20.783Z,0
2018-03-06T03:35:21.121Z,0
2018-03-06T03:36:22.214Z,0
2018-03-06T03:37:20.471Z,0
2018-03-06T03:38:20.438Z,0
2018-03-06T03:39:22.814Z,0
2018-03-06T03:40:20.901Z,0
2018-03-06T03:41:20.432Z,0
2018-03-06T03:42:22.225Z,0
2018-03-06T03:43:20.673Z,0
2018-03-06T03:44:20.100Z,0
2018-03-06T03:45:24.428Z,0
2018-03-06T03:46:20.629Z,0
2018-03-06T03:47:20.627Z,0
2018-03-06T03:48:22.518Z,0
2018-03-06T03:49:20.338Z,0
2018-03-06T03:50:21.412Z,0
2018-03-06T03:51:20.761Z,0
2018-03-06T03:52:21.354Z,0
2018-03-06T03:53:20.330Z,0
2018-03-06T03:54:20.571Z,0
2018-03-06T03:55:21.094Z,0
2018-03-06T03:56:20.274Z,0
2018-03-06T03:57:20.244Z,0
2018-03-06T03:58:21.157Z,0
2018-03-06T03:59:21.309Z,0
2018-03-06T04:00:20.991Z,0
2018-03-06T04:01:19.930Z,0
2018-03-06T04:02:22.658Z,0
2018-03-06T04:03:20.181Z,0
2018-03-06T04:04:20.661Z,0
2018-03-06T04:05:22.035Z,0
2018-03-06T04:06:19.914Z,0
2018-03-06T04:07:22.750Z,0
2018-03-06T04:08:20.393Z,0
2018-03-06T04:09:19.858Z,0
2018-03-06T04:10:20.634Z,0
2018-03-06T04:11:21.314Z,0
2018-03-06T04:12:20.384Z,0
2018-03-06T04:13:19.822Z,0
2018-03-06T04:14:22.815Z,0
2018-03-06T04:15:21.338Z,0
2018-03-06T04:16:20.047Z,0
2018-03-06T04:17:22.069Z,0
2018-03-06T04:18:20.031Z,0
2018-03-06T04:19:20.358Z,0
2018-03-06T04:20:20.564Z,0
2018-03-06T04:21:21.162Z,0
2018-03-06T04:22:19.966Z,0
2018-03-06T04:23:19.959Z,0
2018-03-06T04:24:21.249Z,0
2018-03-06T04:25:20.956Z,0
2018-03-06T04:26:20.252Z,0
2018-03-06T04:27:21.570Z,0
2018-03-06T04:28:19.934Z,0
2018-03-06T04:29:19.921Z,0
2018-03-06T04:30:21.272Z,0
2018-03-06T04:31:22.406Z,0
2018-03-06T04:32:19.875Z,0
2018-03-06T04:33:19.875Z,0
2018-03-06T04:34:22.602Z,0
2018-03-06T04:35:20.787Z,0
2018-03-06T04:36:19.861Z,0
2018-03-06T04:37:21.584Z,0
2018-03-06T04:38:20.109Z,0
2018-03-06T04:39:19.868Z,0
2018-03-06T04:40:20.719Z,0
2018-03-06T04:41:22.462Z,0
2018-03-06T04:42:19.801Z,0
2018-03-06T04:43:19.770Z,0
2018-03-06T04:44:20.466Z,0
2018-03-06T04:45:21.619Z,0
2018-03-06T04:46:20.105Z,0
2018-03-06T04:47:20.017Z,0
2018-03-06T04:48:21.616Z,0
2018-03-06T04:49:20.003Z,0
2018-03-06T04:50:20.912Z,0
2018-03-06T04:51:21.794Z,0
2018-03-06T04:52:19.665Z,0
2018-03-06T04:53:19.664Z,0
2018-03-06T04:54:19.643Z,0
2018-03-06T04:55:21.303Z,0
2018-03-06T04:56:20.137Z,0
2018-03-06T04:57:19.362Z,0
2018-03-06T04:58:19.628Z,0
2018-03-06T04:59:22.244Z,0
2018-03-06T05:00:20.472Z,0
2018-03-06T05:01:20.403Z,0
2018-03-06T05:02:22.099Z,0
2018-03-06T05:03:19.841Z,0
2018-03-06T05:04:19.830Z,0
2018-03-06T05:05:20.503Z,0
2018-03-06T05:06:22.146Z,0
2018-03-06T05:07:19.797Z,0
2018-03-06T05:08:19.238Z,0
2018-03-06T05:09:19.784Z,0
2018-03-06T05:10:20.881Z,0
2018-03-06T05:11:19.784Z,0
2018-03-06T05:12:19.250Z,0
2018-03-06T05:13:19.815Z,0
2018-03-06T05:14:19.172Z,0
2018-03-06T05:15:20.794Z,0
2018-03-06T05:16:26.347Z,0
2018-03-06T05:17:19.692Z,0
2018-03-06T05:18:19.689Z,0
2018-03-06T05:19:20.972Z,0
2018-03-06T05:20:20.271Z,0
2018-03-06T05:21:19.387Z,0
2018-03-06T05:22:19.366Z,0
2018-03-06T05:23:21.590Z,0
2018-03-06T05:24:19.613Z,0
2018-03-06T05:25:20.431Z,0
2018-03-06T05:26:19.318Z,0
2018-03-06T05:27:19.727Z,4
2018-03-06T05:28:19.022Z,4
2018-03-06T05:29:19.586Z,4
2018-03-06T05:30:20.060Z,0
2018-03-06T05:31:21.453Z,4
2018-03-06T05:32:19.511Z,4
2018-03-06T05:33:19.254Z,4
2018-03-06T05:34:19.246Z,8
2018-03-06T05:35:21.749Z,8
2018-03-06T05:36:19.528Z,4
2018-03-06T05:37:19.499Z,12
2018-03-06T05:38:19.191Z,12
2018-03-06T05:39:19.752Z,12
2018-03-06T05:40:20.517Z,16
2018-03-06T05:41:19.466Z,16
2018-03-06T05:42:18.887Z,20
2018-03-06T05:43:21.572Z,24
2018-03-06T05:44:19.388Z,28
2018-03-06T05:45:20.035Z,32
2018-03-06T05:46:19.393Z,36
2018-03-06T05:47:23.371Z,40
2018-03-06T05:48:19.115Z,44
2018-03-06T05:49:19.338Z,48
2018-03-06T05:50:22.299Z,56
2018-03-06T05:51:19.337Z,60
2018-03-06T05:52:18.785Z,72
2018-03-06T05:53:19.312Z,76
2018-03-06T05:54:19.523Z,88
2018-03-06T05:55:20.290Z,92
2018-03-06T05:56:19.001Z,100
2018-03-06T05:57:19.012Z,112
2018-03-06T05:58:21.818Z,120
2018-03-06T05:59:19.282Z,132
2018-03-06T06:00:20.877Z,148
2018-03-06T06:01:18.705Z,160
2018-03-06T06:02:24.098Z,176
2018-03-06T06:03:19.218Z,192
2018-03-06T06:04:18.943Z,208
2018-03-06T06:05:21.986Z,228
2018-03-06T06:06:18.643Z,252
2018-03-06T06:07:18.909Z,272
2018-03-06T06:08:18.650Z,292
2018-03-06T06:09:18.624Z,312
2018-03-06T06:10:21.642Z,340
2018-03-06T06:11:18.849Z,364
2018-03-06T06:12:18.920Z,392
2018-03-06T06:13:19.303Z,416
2018-03-06T06:14:19.304Z,448
2018-03-06T06:15:20.430Z,476
2018-03-06T06:16:19.038Z,508
2018-03-06T06:17:19.019Z,536
2018-03-06T06:18:18.755Z,564
2018-03-06T06:27:28.275Z,888
2018-03-06T06:28:28.001Z,928
2018-03-06T06:29:28.368Z,968
2018-03-06T06:30:28.235Z,1008
2018-03-06T06:31:27.999Z,1044
2018-03-06T06:32:28.072Z,1084
2018-03-06T06:33:28.192Z,1124
2018-03-06T06:34:27.931Z,1164
2018-03-06T06:35:28.058Z,1204
2018-03-06T06:36:28.156Z,1248
2018-03-06T06:37:29.911Z,1288
2018-03-06T06:38:27.890Z,1332
2018-03-06T06:39:28.125Z,1376
2018-03-06T06:40:27.638Z,1420
2018-03-06T06:41:27.858Z,1468
2018-03-06T06:42:27.910Z,1516
2018-03-06T06:43:28.082Z,1568
2018-03-06T06:44:27.824Z,1616
2018-03-06T06:45:27.812Z,1664
2018-03-06T06:46:27.820Z,1720
2018-03-06T06:47:27.799Z,1772
2018-03-06T06:48:28.035Z,1828
2018-03-06T06:49:28.043Z,1884
2018-03-06T06:50:27.791Z,1936
2018-03-06T06:51:28.017Z,1988
2018-03-06T06:52:28.970Z,2040
2018-03-06T06:53:27.740Z,2088
2018-03-06T06:54:27.483Z,2140
2018-03-06T06:55:27.956Z,2196
2018-03-06T06:56:27.730Z,2248
2018-03-06T06:57:27.692Z,2308
2018-03-06T06:58:27.955Z,2372
2018-03-06T06:59:27.698Z,2440
2018-03-06T07:00:27.673Z,2512
2018-03-06T07:01:27.671Z,2580
2018-03-06T07:02:27.408Z,2644
2018-03-06T07:03:27.904Z,2704
2018-03-06T07:04:28.050Z,2768
2018-03-06T07:05:27.689Z,2828
2018-03-06T07:06:27.876Z,2888
2018-03-06T07:07:28.658Z,2952
2018-03-06T07:08:27.867Z,3016
2018-03-06T07:09:27.870Z,3076
2018-03-06T07:10:28.039Z,3144
2018-03-06T07:11:27.307Z,3208
2018-03-06T07:12:27.296Z,3264
2018-03-06T07:13:27.828Z,3320
2018-03-06T07:14:27.531Z,3368
2018-03-06T07:15:27.805Z,3400
2018-03-06T07:16:27.271Z,3440
2018-03-06T07:17:27.511Z,3480
2018-03-06T07:18:27.768Z,3512
2018-03-06T07:19:27.505Z,3548
2018-03-06T07:20:27.745Z,3588
2018-03-06T07:21:27.753Z,3632
2018-03-06T07:22:27.785Z,3684
2018-03-06T07:23:27.750Z,3732
2018-03-06T07:24:27.728Z,3728
2018-03-06T07:25:27.447Z,3776
2018-03-06T07:26:27.728Z,3828
2018-03-06T07:27:27.702Z,3888
2018-03-06T07:28:27.450Z,3944
2018-03-06T07:29:27.406Z,4000
2018-03-06T07:30:26.913Z,4068
2018-03-06T07:31:27.663Z,4128
2018-03-06T07:32:27.652Z,4244
2018-03-06T07:33:26.884Z,4292
2018-03-06T07:34:27.638Z,4340
2018-03-06T07:35:27.362Z,4340
2018-03-06T07:36:27.612Z,4420
2018-03-06T07:37:27.597Z,4472
2018-03-06T07:38:27.344Z,4524
2018-03-06T07:39:27.374Z,4572
2018-03-06T07:40:27.063Z,4624
2018-03-06T07:41:27.310Z,4684
2018-03-06T07:42:27.316Z,4720
2018-03-06T07:43:28.093Z,4776
2018-03-06T07:44:27.294Z,4824
2018-03-06T07:45:27.442Z,4964
2018-03-06T07:46:27.539Z,5048
2018-03-06T07:47:27.289Z,5084
2018-03-06T07:48:27.521Z,5080
2018-03-06T07:49:27.271Z,5104
2018-03-06T07:50:26.997Z,5144
2018-03-06T07:51:27.240Z,5208
2018-03-06T07:52:27.514Z,5228
2018-03-06T07:53:30.064Z,5132
2018-03-06T07:54:27.529Z,5112
2018-03-06T07:55:27.227Z,5292
2018-03-06T07:56:27.220Z,5412
2018-03-06T07:57:27.223Z,5532
2018-03-06T07:58:27.461Z,5568
2018-03-06T07:59:27.200Z,5572
2018-03-06T08:00:27.195Z,5612
2018-03-06T08:01:27.193Z,5656
2018-03-06T08:02:26.952Z,5700
2018-03-06T08:03:27.280Z,5748
2018-03-06T08:04:27.169Z,5816
2018-03-06T08:05:27.413Z,5824
2018-03-06T08:06:27.195Z,5864
2018-03-06T08:07:27.456Z,5884
2018-03-06T08:08:28.204Z,5972
2018-03-06T08:09:27.409Z,6060
2018-03-06T08:10:27.138Z,6132
2018-03-06T08:11:27.373Z,6180
2018-03-06T08:12:27.150Z,6344
2018-03-06T08:13:27.122Z,6368
2018-03-06T08:14:27.370Z,6256
2018-03-06T08:15:26.855Z,6228
2018-03-06T08:16:27.370Z,6228
2018-03-06T08:17:27.344Z,6272
2018-03-06T08:18:27.386Z,6348
2018-03-06T08:19:27.346Z,6396
2018-03-06T08:20:26.571Z,6420
2018-03-06T08:21:27.324Z,6456
2018-03-06T08:22:26.821Z,6504
2018-03-06T08:23:28.920Z,6588
2018-03-06T08:24:27.060Z,6572
2018-03-06T08:25:27.049Z,6492
2018-03-06T08:26:27.047Z,6492
2018-03-06T08:27:27.306Z,6484
2018-03-06T08:28:27.033Z,6464
2018-03-06T08:29:27.273Z,6488
2018-03-06T08:30:27.284Z,6476
2018-03-06T08:31:26.755Z,6500
2018-03-06T08:32:27.268Z,6508
2018-03-06T08:33:27.285Z,6596
2018-03-06T08:34:27.271Z,6632
2018-03-06T08:35:27.247Z,6652
2018-03-06T08:36:26.731Z,6624
2018-03-06T08:37:26.727Z,6688
2018-03-06T08:38:26.972Z,6728
2018-03-06T08:39:26.969Z,6796
2018-03-06T08:40:27.219Z,6860
2018-03-06T08:41:26.959Z,6912
2018-03-06T08:42:27.211Z,6928
2018-03-06T08:43:27.222Z,6896
2018-03-06T08:44:26.445Z,6896
2018-03-06T08:45:27.204Z,6912
2018-03-06T08:46:26.953Z,6980
2018-03-06T08:47:27.193Z,7080
2018-03-06T08:48:26.670Z,7172
2018-03-06T08:49:27.196Z,7180
2018-03-06T08:50:26.910Z,7212
2018-03-06T08:51:26.407Z,7184
2018-03-06T08:52:27.234Z,7204
2018-03-06T08:53:27.149Z,7240
2018-03-06T08:54:27.381Z,7152
2018-03-06T08:55:26.887Z,7168
2018-03-06T08:56:26.887Z,7220
2018-03-06T08:57:26.871Z,7236
2018-03-06T08:58:26.888Z,7300
2018-03-06T08:59:26.618Z,7368
2018-03-06T09:00:26.864Z,7400
2018-03-06T09:01:26.863Z,7536
2018-03-06T09:02:26.859Z,7604
2018-03-06T09:03:26.604Z,7656
2018-03-06T09:04:26.592Z,7656
2018-03-06T09:05:26.831Z,7636
2018-03-06T09:06:26.831Z,7672
2018-03-06T09:07:27.073Z,7772
2018-03-06T09:08:26.827Z,7784
2018-03-06T09:09:30.918Z,7880
2018-03-06T09:10:26.814Z,7924
2018-03-06T09:11:26.550Z,8028
2018-03-06T09:12:26.298Z,8004
2018-03-06T09:13:26.791Z,8004
2018-03-06T09:14:26.531Z,7984
2018-03-06T09:15:27.052Z,7980
2018-03-06T09:16:27.031Z,8004
2018-03-06T09:17:27.145Z,8032
2018-03-06T09:18:27.030Z,8032
2018-03-06T09:19:26.763Z,8016
2018-03-06T09:20:26.769Z,7980
2018-03-06T09:21:26.768Z,7960
2018-03-06T09:22:26.761Z,7940
2018-03-06T09:23:26.751Z,7956
2018-03-06T09:24:31.072Z,7996
2018-03-06T09:25:26.507Z,8028
2018-03-06T09:26:27.001Z,8080
2018-03-06T09:27:26.481Z,8108
2018-03-06T09:28:26.480Z,8132
2018-03-06T09:29:26.480Z,8076
2018-03-06T09:30:26.981Z,8100
2018-03-06T09:31:26.711Z,8100
2018-03-06T09:32:26.968Z,8064
2018-03-06T09:33:26.458Z,8060
2018-03-06T09:34:26.721Z,8068
2018-03-06T09:35:26.694Z,8064
2018-03-06T09:36:26.439Z,8044
2018-03-06T09:37:26.431Z,8052
2018-03-06T09:38:26.688Z,8076
2018-03-06T09:39:26.443Z,8088
2018-03-06T09:40:27.746Z,8024
2018-03-06T09:41:26.414Z,8012
2018-03-06T09:42:26.666Z,8072
2018-03-06T09:43:26.661Z,8116
2018-03-06T09:44:26.407Z,8092
2018-03-06T09:45:26.403Z,8120
2018-03-06T09:46:26.901Z,8156
2018-03-06T09:47:26.646Z,8204
2018-03-06T09:48:26.648Z,8228
2018-03-06T09:49:26.395Z,8112
2018-03-06T09:50:26.915Z,8248
2018-03-06T09:51:26.883Z,8264
2018-03-06T09:52:26.448Z,8324
2018-03-06T09:53:26.368Z,8392
2018-03-06T09:54:26.376Z,8516
2018-03-06T09:55:30.776Z,8604
2018-03-06T09:56:26.923Z,8664
2018-03-06T09:57:26.710Z,8696
2018-03-06T09:58:26.101Z,8740
2018-03-06T09:59:26.608Z,8764
2018-03-06T10:00:26.596Z,8780
2018-03-06T10:01:26.597Z,8788
2018-03-06T10:02:26.345Z,8792
2018-03-06T10:03:26.088Z,8780
2018-03-06T10:04:26.597Z,8796
2018-03-06T10:05:27.649Z,8808
2018-03-06T10:06:26.600Z,8836
2018-03-06T10:07:26.821Z,8832
2018-03-06T10:08:26.576Z,8848
2018-03-06T10:09:26.820Z,8900
2018-03-06T10:10:27.666Z,8832
2018-03-06T10:11:26.061Z,8832
2018-03-06T10:12:26.557Z,8756
2018-03-06T10:13:26.815Z,8788
2018-03-06T10:14:26.801Z,9016
2018-03-06T10:15:26.306Z,9132
2018-03-06T10:16:26.296Z,9140
2018-03-06T10:17:26.550Z,9184
2018-03-06T10:18:26.543Z,9256
2018-03-06T10:19:26.289Z,9284
2018-03-06T10:20:26.532Z,9292
2018-03-06T10:21:26.531Z,9300
2018-03-06T10:22:26.541Z,9300
2018-03-06T10:23:26.771Z,9280
2018-03-06T10:24:26.270Z,9264
2018-03-06T10:25:26.512Z,9316
2018-03-06T10:26:26.268Z,9292
2018-03-06T10:27:26.510Z,9280
2018-03-06T10:28:26.571Z,9240
2018-03-06T10:58:37.607Z,8844
2018-03-06T10:59:34.600Z,8852
2018-03-06T11:00:34.850Z,8900
2018-03-06T11:01:34.593Z,8896
2018-03-06T11:02:34.586Z,8864
2018-03-06T11:03:35.084Z,8880
2018-03-06T11:04:35.125Z,8904
2018-03-06T11:05:35.062Z,8920
2018-03-06T11:06:35.046Z,8920
2018-03-06T11:07:34.797Z,8900
2018-03-06T11:08:34.788Z,8868
2018-03-06T11:09:34.792Z,8928
2018-03-06T11:10:34.523Z,8968
2018-03-06T11:11:34.772Z,8996
2018-03-06T11:12:35.023Z,9008
2018-03-06T11:13:34.509Z,9028
2018-03-06T11:14:34.503Z,9044
2018-03-06T11:15:35.012Z,9028
2018-03-06T11:16:34.756Z,9056
2018-03-06T11:17:34.741Z,9064
2018-03-06T11:18:35.176Z,9092
2018-03-06T11:19:34.992Z,9128
2018-03-06T11:20:34.740Z,9152
2018-03-06T11:21:34.979Z,9156
2018-03-06T11:22:34.725Z,9152
2018-03-06T11:23:34.720Z,9152
2018-03-06T11:24:34.462Z,9160
2018-03-06T11:25:34.720Z,9164
2018-03-06T11:26:34.965Z,9148
2018-03-06T11:27:34.971Z,9132
2018-03-06T11:28:34.922Z,9104
2018-03-06T11:29:34.192Z,9112
2018-03-06T11:30:34.954Z,9092
2018-03-06T11:31:34.454Z,9092
2018-03-06T11:32:34.436Z,9092
2018-03-06T11:33:34.958Z,9100
2018-03-06T11:34:34.689Z,9076
2018-03-06T11:35:34.971Z,9044
2018-03-06T11:36:34.680Z,9012
2018-03-06T11:37:34.418Z,8996
2018-03-06T11:38:34.673Z,8992
2018-03-06T11:39:34.160Z,8984
2018-03-06T11:40:34.416Z,8984
2018-03-06T11:41:34.913Z,8988
2018-03-06T11:42:34.153Z,8992
2018-03-06T11:43:35.197Z,8996
2018-03-06T11:44:34.906Z,8984
2018-03-06T11:45:34.643Z,8976
2018-03-06T11:46:34.638Z,8964
2018-03-06T11:47:34.387Z,8948
2018-03-06T11:48:34.387Z,8932
2018-03-06T11:49:34.629Z,8928
2018-03-06T11:50:34.894Z,8912
2018-03-06T11:51:34.878Z,8896
2018-03-06T11:52:34.624Z,8892
2018-03-06T11:53:35.422Z,8892
2018-03-06T11:54:34.622Z,8888
2018-03-06T11:55:34.643Z,8880
2018-03-06T11:56:34.877Z,8876
2018-03-06T11:57:34.877Z,8864
2018-03-06T11:58:35.008Z,8864
2018-03-06T11:59:34.349Z,8860
2018-03-06T12:00:34.351Z,8852
2018-03-06T12:01:34.598Z,8852
2018-03-06T12:02:34.594Z,8864
2018-03-06T12:03:34.597Z,8872
2018-03-06T12:04:34.595Z,8884
2018-03-06T12:05:34.594Z,8896
2018-03-06T12:06:34.585Z,8916
2018-03-06T12:07:34.832Z,8940
2018-03-06T12:08:34.087Z,8948
2018-03-06T12:09:34.834Z,8960
2018-03-06T12:10:34.580Z,8968
2018-03-06T12:11:34.825Z,8976
2018-03-06T12:12:34.314Z,8980
2018-03-06T12:13:34.567Z,8984
2018-03-06T12:14:34.320Z,8988
2018-03-06T12:15:34.825Z,8992
2018-03-06T12:16:34.817Z,9000
2018-03-06T12:17:34.820Z,9000
2018-03-06T12:18:34.350Z,8996
2018-03-06T12:19:34.302Z,9000
2018-03-06T12:20:34.300Z,8992
2018-03-06T12:21:34.305Z,8980
2018-03-06T12:22:34.816Z,8976
2018-03-06T12:23:34.558Z,8976
2018-03-06T12:24:34.547Z,8980
2018-03-06T12:25:34.549Z,8976
2018-03-06T12:26:34.550Z,8972
2018-03-06T12:27:34.032Z,8960
2018-03-06T12:28:34.531Z,8960
2018-03-06T12:29:34.783Z,8956
2018-03-06T12:30:34.526Z,8956
2018-03-06T12:31:34.524Z,8952
2018-03-06T12:32:34.274Z,8940
2018-03-06T12:33:34.778Z,8928
2018-03-06T12:34:34.281Z,8908
2018-03-06T12:35:34.776Z,8904
2018-03-06T12:36:34.555Z,8896
2018-03-06T12:37:34.766Z,8896
2018-03-06T12:38:34.791Z,8900
2018-03-06T12:39:34.272Z,8912
2018-03-06T12:40:34.276Z,8920
2018-03-06T12:41:34.503Z,8932
2018-03-06T12:42:34.506Z,8940
2018-03-06T12:43:34.763Z,8948
2018-03-06T12:44:34.254Z,8944
2018-03-06T12:45:34.266Z,8944
2018-03-06T12:46:34.754Z,8932
2018-03-06T12:47:34.242Z,8916
2018-03-06T12:48:34.756Z,8900
2018-03-06T12:49:34.227Z,8880
2018-03-06T12:50:34.500Z,8856
2018-03-06T12:51:34.487Z,8836
2018-03-06T12:52:34.742Z,8812
2018-03-06T12:53:34.475Z,8784
2018-03-06T12:54:34.731Z,8760
2018-03-06T12:55:34.523Z,8732
2018-03-06T12:56:34.766Z,8708
2018-03-06T12:57:34.480Z,8680
2018-03-06T12:58:34.725Z,8656
2018-03-06T12:59:35.263Z,8628
2018-03-06T13:00:34.714Z,8592
2018-03-06T13:01:34.206Z,8556
2018-03-06T13:02:34.718Z,8536
2018-03-06T13:03:34.200Z,8528
2018-03-06T13:04:34.709Z,8504
2018-03-06T13:05:34.191Z,8484
2018-03-06T13:06:34.706Z,8452
2018-03-06T13:07:34.202Z,8400
2018-03-06T13:08:34.186Z,8380
2018-03-06T13:09:34.442Z,8356
2018-03-06T13:10:34.445Z,8344
2018-03-06T13:11:34.712Z,8328
2018-03-06T13:12:34.201Z,8304
2018-03-06T13:13:34.427Z,8280
2018-03-06T13:14:34.428Z,8264
2018-03-06T13:15:34.209Z,8232
2018-03-06T13:16:34.430Z,8244
2018-03-06T13:17:34.180Z,8232
2018-03-06T13:18:34.721Z,8176
2018-03-06T13:19:34.679Z,8144
2018-03-06T13:20:34.419Z,8120
2018-03-06T13:21:34.421Z,8096
2018-03-06T13:22:34.153Z,8072
2018-03-06T13:23:34.821Z,8040
2018-03-06T13:24:34.222Z,8012
2018-03-06T13:25:34.401Z,7984
2018-03-06T13:26:34.675Z,7996
2018-03-06T13:27:34.658Z,7968
2018-03-06T13:28:34.663Z,7896
2018-03-06T13:29:34.666Z,7868
2018-03-06T13:30:36.452Z,7840
2018-03-06T13:31:34.671Z,7808
2018-03-06T13:32:34.191Z,7784
2018-03-06T13:33:34.641Z,7756
2018-03-06T13:34:34.389Z,7732
2018-03-06T13:35:34.634Z,7712
2018-03-06T13:36:34.644Z,7688
2018-03-06T13:37:34.365Z,7672
2018-03-06T13:38:34.670Z,7664
2018-03-06T13:39:34.630Z,7688
2018-03-06T13:40:34.361Z,7688
2018-03-06T13:41:34.625Z,7680
2018-03-06T13:42:34.364Z,7636
2018-03-06T13:43:34.116Z,7628
2018-03-06T13:44:34.109Z,7616
2018-03-06T13:45:34.358Z,7600
2018-03-06T13:46:34.623Z,7584
2018-03-06T13:47:34.363Z,7564
2018-03-06T13:48:34.367Z,7544
2018-03-06T13:49:34.344Z,7512
2018-03-06T13:50:34.347Z,7528
2018-03-06T13:51:34.363Z,7500
2018-03-06T13:52:34.352Z,7448
2018-03-06T13:53:34.087Z,7424
2018-03-06T13:54:33.834Z,7404
2018-03-06T13:55:34.343Z,7380
2018-03-06T13:56:34.335Z,7356
2018-03-06T13:57:34.589Z,7332
2018-03-06T13:58:33.812Z,7300
2018-03-06T13:59:34.322Z,7268
2018-03-06T14:00:34.618Z,7272
2018-03-06T14:01:34.615Z,7236
2018-03-06T14:02:34.063Z,7172
2018-03-06T14:03:34.321Z,7136
2018-03-06T14:04:34.062Z,7100
2018-03-06T14:05:34.575Z,7064
2018-03-06T14:06:34.569Z,7024
2018-03-06T14:07:34.615Z,6976
2018-03-06T14:08:34.326Z,6936
2018-03-06T14:09:34.294Z,6892
2018-03-06T14:10:34.293Z,6880
2018-03-06T14:11:34.299Z,6840
2018-03-06T14:12:34.293Z,6776
2018-03-06T14:13:34.290Z,6720
2018-03-06T14:14:34.304Z,6672
2018-03-06T14:15:34.654Z,6624
2018-03-06T14:16:34.543Z,6568
2018-03-06T14:17:34.290Z,6508
2018-03-06T14:18:34.276Z,6456
2018-03-06T14:19:34.278Z,6404
2018-03-06T14:20:34.541Z,6348
2018-03-06T14:21:34.555Z,6284
2018-03-06T14:22:34.010Z,6256
2018-03-06T14:23:34.013Z,6208
2018-03-06T14:24:34.520Z,6164
2018-03-06T14:25:34.007Z,6128
2018-03-06T14:26:34.248Z,6096
2018-03-06T14:27:34.503Z,6052
2018-03-06T14:28:33.992Z,6012
2018-03-06T14:29:34.518Z,5972
2018-03-06T14:30:36.292Z,5932
2018-03-06T14:31:34.495Z,5900